Guenther Schulte — VRGK8 — position and weather

sailwx.info

Track history (hours):
 
Tides and Currents Weather Stations Pressure Air Temp Water Temp Dewpoint Dewpoint Depression Visibility Wind Speed Wind Dir Waves Ship Positions

Guenther Schulte

Last reported at 2017-Nov-05 22:23 UTC. Time now 2017-Nov-22 11:19 UTC.
Position S 07°12' E 112°42'.
Warning: this ship's position is 16 days out of date.

Length 231 m; draft 11.3 m.

Type: Ship (hazmat cat A). MMSI: 477728800.

Date/timePositionNaut miles runAvg speedWind from/ knotsBaromVisibWave heightAir tempDewpointWater temp
2017-Nov-05 22:23S 07°12' E 112°42'0 0.0
2017-Nov-05 20:17S 07°12' E 112°42'0 0.0
2017-Nov-05 09:49S 07°12' E 112°42'0 1.0
2017-Nov-05 09:30S 07°12' E 112°42'5 9.1
2017-Nov-05 09:00S 07°08' E 112°39'815.2
2017-Nov-05 08:30S 07°00' E 112°41'713.4
2017-Nov-05 08:01S 06°54' E 112°44'3 6.3
2017-Nov-05 07:30S 06°51' E 112°45'1 1.6
2017-Nov-05 06:51S 06°50' E 112°45'3 7.3
2017-Nov-05 06:27S 06°47' E 112°44'  
2017-Nov-01 01:59N 01°10' E 103°30'0 1.0
2017-Nov-01 01:30N 01°11' E 103°30'1 1.1
2017-Nov-01 00:59N 01°11' E 103°29'0 1.0
2017-Nov-01 00:30N 01°11' E 103°29'0 0.7
2017-Nov-01 00:00N 01°11' E 103°29'1 2.4
2017-Oct-31 23:30N 01°12' E 103°29'3 6.5
2017-Oct-31 23:00N 01°14' E 103°32'4 8.1
2017-Oct-31 22:30N 01°17' E 103°33'3 6.5
2017-Oct-31 21:59N 01°21' E 103°33'0 0.2
2017-Oct-31 21:30N 01°21' E 103°33'0 0.0
2017-Oct-31 21:00N 01°21' E 103°33'0 0.0
2017-Oct-31 20:30N 01°21' E 103°33'0 0.0
2017-Oct-31 19:56N 01°21' E 103°33'0 0.0
2017-Oct-31 19:29N 01°21' E 103°33'0 0.0
2017-Oct-31 18:56N 01°21' E 103°33'0 0.0
2017-Oct-31 18:29N 01°21' E 103°33'0 0.0
2017-Oct-31 17:59N 01°21' E 103°33'0 0.0
2017-Oct-31 17:29N 01°21' E 103°33'0 0.0
2017-Oct-31 16:59N 01°21' E 103°33'0 0.0
2017-Oct-31 16:29N 01°21' E 103°33'0 0.0
2017-Oct-31 15:59N 01°21' E 103°33'0 0.0
2017-Oct-31 15:26N 01°21' E 103°33'0 0.0
2017-Oct-31 14:56N 01°21' E 103°33'0 0.0
2017-Oct-31 14:20N 01°21' E 103°33'0 0.0
2017-Oct-31 13:56N 01°21' E 103°33'0 0.0
2017-Oct-31 13:29N 01°21' E 103°33'0 0.0
2017-Oct-31 12:59N 01°21' E 103°33'0 0.0
2017-Oct-31 12:26N 01°21' E 103°33'0 0.0
2017-Oct-31 11:59N 01°21' E 103°33'0 0.0
2017-Oct-31 11:17N 01°21' E 103°33'0 0.0
2017-Oct-31 10:59N 01°21' E 103°33'0 0.0
2017-Oct-31 10:11N 01°21' E 103°33'0 0.0
2017-Oct-31 09:23N 01°21' E 103°33'0 0.0
2017-Oct-31 08:50N 01°21' E 103°33'0 0.0
2017-Oct-31 08:23N 01°21' E 103°33'0 0.0
2017-Oct-31 07:50N 01°21' E 103°33'0 0.0
2017-Oct-31 07:26N 01°21' E 103°33'0 0.0
2017-Oct-31 06:59N 01°21' E 103°33'0 0.0
2017-Oct-31 05:53N 01°21' E 103°33'0 0.0
2017-Oct-31 05:26N 01°21' E 103°33'0 0.0
2017-Oct-31 04:59N 01°21' E 103°33'0 0.0
2017-Oct-31 04:29N 01°21' E 103°33'0 0.0
2017-Oct-31 03:59N 01°21' E 103°33'0 0.0
2017-Oct-31 03:26N 01°21' E 103°33'0 0.0
2017-Oct-31 02:54N 01°21' E 103°33'0 0.4
2017-Oct-31 02:30N 01°21' E 103°33'3 6.2
2017-Oct-31 02:00N 01°18' E 103°33'5 9.4
2017-Oct-31 01:31N 01°13' E 103°32'3 5.8
2017-Oct-31 01:00N 01°11' E 103°30'0 1.0
2017-Oct-31 00:30N 01°11' E 103°30'0 0.4
2017-Oct-31 00:00N 01°11' E 103°30'2 4.1
2017-Oct-30 23:30N 01°12' E 103°31'3 6.3
2017-Oct-30 23:01N 01°13' E 103°34'4 7.1
2017-Oct-30 22:30N 01°11' E 103°38'3 6.4
2017-Oct-30 22:00N 01°10' E 103°41'3 6.6
2017-Oct-30 21:30N 01°09' E 103°43'4 8.3
2017-Oct-30 21:00N 01°10' E 103°47'4 8.3
2017-Oct-30 20:30N 01°12' E 103°51'510.5
2017-Oct-30 19:59N 01°14' E 103°56'713.8
2017-Oct-30 19:30N 01°16' E 104°02'  
2017-Oct-27 19:18N 21°43' E 113°53'618.7
2017-Oct-27 19:00N 21°49' E 113°52'918.4
2017-Oct-27 18:30N 21°58' E 113°51'815.6
2017-Oct-27 18:01N 22°05' E 113°50'4 8.6
2017-Oct-27 17:30N 22°10' E 113°50'816.3
2017-Oct-27 17:00N 22°18' E 113°48'815.2
2017-Oct-27 16:30N 22°25' E 113°46'714.2
2017-Oct-27 16:00N 22°32' E 113°44'612.8
2017-Oct-27 15:30N 22°38' E 113°42'1 2.2
2017-Oct-27 15:00N 22°39' E 113°41'0 0.0
2017-Oct-27 14:30N 22°39' E 113°41'0 0.0
2017-Oct-27 14:00N 22°39' E 113°41'0 0.0
2017-Oct-27 13:30N 22°39' E 113°41'0 0.0
2017-Oct-27 13:00N 22°39' E 113°41'0 0.1
2017-Oct-27 12:30N 22°39' E 113°41'0 0.1
2017-Oct-27 12:00N 22°39' E 113°41'0 0.0
2017-Oct-27 11:30N 22°39' E 113°41'0 0.0
2017-Oct-27 10:57N 22°39' E 113°41'0 0.0
2017-Oct-27 10:30N 22°39' E 113°41'0 0.0
2017-Oct-27 10:00N 22°39' E 113°41'0 0.0
2017-Oct-27 09:30N 22°39' E 113°41'0 0.0
2017-Oct-27 09:00N 22°39' E 113°41'0 0.0
2017-Oct-27 08:30N 22°39' E 113°41'0 0.0
2017-Oct-27 08:00N 22°39' E 113°41'0 0.0
2017-Oct-27 07:27N 22°39' E 113°41'0 0.0
2017-Oct-27 07:00N 22°39' E 113°41'0 0.0
2017-Oct-27 06:30N 22°39' E 113°41'0 0.0
2017-Oct-27 05:57N 22°39' E 113°41'0 0.0
2017-Oct-27 05:30N 22°39' E 113°41'0 0.0
2017-Oct-27 05:00N 22°39' E 113°41'0 0.0
2017-Oct-27 04:30N 22°39' E 113°41'0 0.0
2017-Oct-27 04:00N 22°39' E 113°41'0 0.0
2017-Oct-27 03:30N 22°39' E 113°41'0 0.0
2017-Oct-27 03:00N 22°39' E 113°41'0 0.0
2017-Oct-27 02:30N 22°39' E 113°41'0 0.0
2017-Oct-27 02:00N 22°39' E 113°41'1 2.0
2017-Oct-27 01:30N 22°38' E 113°41'612.2
2017-Oct-27 01:00N 22°32' E 113°44'713.2
2017-Oct-27 00:30N 22°26' E 113°45'714.4
2017-Oct-27 00:00N 22°19' E 113°48'714.4
2017-Oct-26 23:30N 22°12' E 113°50'711.8
2017-Oct-26 22:55N 22°05' E 113°52'  
Track history (hours):
 
Tides and Currents Weather Stations Pressure Air Temp Water Temp Dewpoint Dewpoint Depression Visibility Wind Speed Wind Dir Waves Ship Positions

Guenther Schulte

Last reported at 2017-Nov-05 22:23 UTC. Time now 2017-Nov-22 11:19 UTC.
Position S 07°12' E 112°42'.
Warning: this ship's position is 16 days out of date.

Length 231 m; draft 11.3 m.

Type: Ship (hazmat cat A). MMSI: 477728800.

Date/timePositionNaut miles runAvg speedWind from/ knotsBaromVisibWave heightAir tempDewpointWater temp
2017-Nov-05 22:23S 07°12' E 112°42'0 0.0
2017-Nov-05 20:17S 07°12' E 112°42'0 0.0
2017-Nov-05 09:49S 07°12' E 112°42'0 1.0
2017-Nov-05 09:30S 07°12' E 112°42'5 9.1
2017-Nov-05 09:00S 07°08' E 112°39'815.2
2017-Nov-05 08:30S 07°00' E 112°41'713.4
2017-Nov-05 08:01S 06°54' E 112°44'3 6.3
2017-Nov-05 07:30S 06°51' E 112°45'1 1.6
2017-Nov-05 06:51S 06°50' E 112°45'3 7.3
2017-Nov-05 06:27S 06°47' E 112°44'  
2017-Nov-01 01:59N 01°10' E 103°30'0 1.0
2017-Nov-01 01:30N 01°11' E 103°30'1 1.1
2017-Nov-01 00:59N 01°11' E 103°29'0 1.0
2017-Nov-01 00:30N 01°11' E 103°29'0 0.7
2017-Nov-01 00:00N 01°11' E 103°29'1 2.4
2017-Oct-31 23:30N 01°12' E 103°29'3 6.5
2017-Oct-31 23:00N 01°14' E 103°32'4 8.1
2017-Oct-31 22:30N 01°17' E 103°33'3 6.5
2017-Oct-31 21:59N 01°21' E 103°33'0 0.2
2017-Oct-31 21:30N 01°21' E 103°33'0 0.0
2017-Oct-31 21:00N 01°21' E 103°33'0 0.0
2017-Oct-31 20:30N 01°21' E 103°33'0 0.0
2017-Oct-31 19:56N 01°21' E 103°33'0 0.0
2017-Oct-31 19:29N 01°21' E 103°33'0 0.0
2017-Oct-31 18:56N 01°21' E 103°33'0 0.0
2017-Oct-31 18:29N 01°21' E 103°33'0 0.0
2017-Oct-31 17:59N 01°21' E 103°33'0 0.0
2017-Oct-31 17:29N 01°21' E 103°33'0 0.0
2017-Oct-31 16:59N 01°21' E 103°33'0 0.0
2017-Oct-31 16:29N 01°21' E 103°33'0 0.0
2017-Oct-31 15:59N 01°21' E 103°33'0 0.0
2017-Oct-31 15:26N 01°21' E 103°33'0 0.0
2017-Oct-31 14:56N 01°21' E 103°33'0 0.0
2017-Oct-31 14:20N 01°21' E 103°33'0 0.0
2017-Oct-31 13:56N 01°21' E 103°33'0 0.0
2017-Oct-31 13:29N 01°21' E 103°33'0 0.0
2017-Oct-31 12:59N 01°21' E 103°33'0 0.0
2017-Oct-31 12:26N 01°21' E 103°33'0 0.0
2017-Oct-31 11:59N 01°21' E 103°33'0 0.0
2017-Oct-31 11:17N 01°21' E 103°33'0 0.0
2017-Oct-31 10:59N 01°21' E 103°33'0 0.0
2017-Oct-31 10:11N 01°21' E 103°33'0 0.0
2017-Oct-31 09:23N 01°21' E 103°33'0 0.0
2017-Oct-31 08:50N 01°21' E 103°33'0 0.0
2017-Oct-31 08:23N 01°21' E 103°33'0 0.0
2017-Oct-31 07:50N 01°21' E 103°33'0 0.0
2017-Oct-31 07:26N 01°21' E 103°33'0 0.0
2017-Oct-31 06:59N 01°21' E 103°33'0 0.0
2017-Oct-31 05:53N 01°21' E 103°33'0 0.0
2017-Oct-31 05:26N 01°21' E 103°33'0 0.0
2017-Oct-31 04:59N 01°21' E 103°33'0 0.0
2017-Oct-31 04:29N 01°21' E 103°33'0 0.0
2017-Oct-31 03:59N 01°21' E 103°33'0 0.0
2017-Oct-31 03:26N 01°21' E 103°33'0 0.0
2017-Oct-31 02:54N 01°21' E 103°33'0 0.4
2017-Oct-31 02:30N 01°21' E 103°33'3 6.2
2017-Oct-31 02:00N 01°18' E 103°33'5 9.4
2017-Oct-31 01:31N 01°13' E 103°32'3 5.8
2017-Oct-31 01:00N 01°11' E 103°30'0 1.0
2017-Oct-31 00:30N 01°11' E 103°30'0 0.4
2017-Oct-31 00:00N 01°11' E 103°30'2 4.1
2017-Oct-30 23:30N 01°12' E 103°31'3 6.3
2017-Oct-30 23:01N 01°13' E 103°34'4 7.1
2017-Oct-30 22:30N 01°11' E 103°38'3 6.4
2017-Oct-30 22:00N 01°10' E 103°41'3 6.6
2017-Oct-30 21:30N 01°09' E 103°43'4 8.3
2017-Oct-30 21:00N 01°10' E 103°47'4 8.3
2017-Oct-30 20:30N 01°12' E 103°51'510.5
2017-Oct-30 19:59N 01°14' E 103°56'713.8
2017-Oct-30 19:30N 01°16' E 104°02'  
2017-Oct-27 19:18N 21°43' E 113°53'618.7
2017-Oct-27 19:00N 21°49' E 113°52'918.4
2017-Oct-27 18:30N 21°58' E 113°51'815.6
2017-Oct-27 18:01N 22°05' E 113°50'4 8.6
2017-Oct-27 17:30N 22°10' E 113°50'816.3
2017-Oct-27 17:00N 22°18' E 113°48'815.2
2017-Oct-27 16:30N 22°25' E 113°46'714.2
2017-Oct-27 16:00N 22°32' E 113°44'612.8
2017-Oct-27 15:30N 22°38' E 113°42'1 2.2
2017-Oct-27 15:00N 22°39' E 113°41'0 0.0
2017-Oct-27 14:30N 22°39' E 113°41'0 0.0
2017-Oct-27 14:00N 22°39' E 113°41'0 0.0
2017-Oct-27 13:30N 22°39' E 113°41'0 0.0
2017-Oct-27 13:00N 22°39' E 113°41'0 0.1
2017-Oct-27 12:30N 22°39' E 113°41'0 0.1
2017-Oct-27 12:00N 22°39' E 113°41'0 0.0
2017-Oct-27 11:30N 22°39' E 113°41'0 0.0
2017-Oct-27 10:57N 22°39' E 113°41'0 0.0
2017-Oct-27 10:30N 22°39' E 113°41'0 0.0
2017-Oct-27 10:00N 22°39' E 113°41'0 0.0
2017-Oct-27 09:30N 22°39' E 113°41'0 0.0
2017-Oct-27 09:00N 22°39' E 113°41'0 0.0
2017-Oct-27 08:30N 22°39' E 113°41'0 0.0
2017-Oct-27 08:00N 22°39' E 113°41'0 0.0
2017-Oct-27 07:27N 22°39' E 113°41'0 0.0
2017-Oct-27 07:00N 22°39' E 113°41'0 0.0
2017-Oct-27 06:30N 22°39' E 113°41'0 0.0
2017-Oct-27 05:57N 22°39' E 113°41'0 0.0
2017-Oct-27 05:30N 22°39' E 113°41'0 0.0
2017-Oct-27 05:00N 22°39' E 113°41'0 0.0
2017-Oct-27 04:30N 22°39' E 113°41'0 0.0
2017-Oct-27 04:00N 22°39' E 113°41'0 0.0
2017-Oct-27 03:30N 22°39' E 113°41'0 0.0
2017-Oct-27 03:00N 22°39' E 113°41'0 0.0
2017-Oct-27 02:30N 22°39' E 113°41'0 0.0
2017-Oct-27 02:00N 22°39' E 113°41'1 2.0
2017-Oct-27 01:30N 22°38' E 113°41'612.2
2017-Oct-27 01:00N 22°32' E 113°44'713.2
2017-Oct-27 00:30N 22°26' E 113°45'714.4
2017-Oct-27 00:00N 22°19' E 113°48'714.4
2017-Oct-26 23:30N 22°12' E 113°50'711.8
2017-Oct-26 22:55N 22°05' E 113°52'  

Dump ship's entire track history